Quincy, IL

6:14 PM CDT on March 26, 2015 (GMT -0500)
Adams County Emergency Management | | Change Station
CLOSE
Current Station
Personal Weather Station
Location: Quincy, IL
Elevation: 725 ft
Nearby Weather Stations

Elev 725 ft 39.93 °N, 91.33 °W | Updated 8 seconds ago

Clear
Clear
48.9 °F
Feels Like 46 °F
N
6.0
Wind Variable Wind from NW
Gusts 11.0 mph

Today
High -- | Low -- °F
--% Chance of Precip.
Yesterday
High -- | Low -- °F
Precip. -- in
6:59 AM 7:23 PM
Waxing Crescent, 46% visible
Pressure 30.05 in
Visibility 10.0 miles
Clouds Few 5500 ft
Windchill 46 °F
Dew Point 28 °F
Humidity 44%
Rainfall 0.15 in
Snow Depth Not available.
UV 1 out of 12
Pollen 6.40 out of 12
Air Quality Not available.
Flu Activity Not available.
METAR KUIN 262254Z AUTO 31013KT 10SM FEW055 09/M04 A3004 RMK AO2 SLP174 T00891039

More Conditions Fewer Conditions

Pressure 30.05 in
Visibility 10.0 miles
Clouds Few 5500 ft
Windchill 46 °F
Dew Point 28 °F
Humidity 44%
Rainfall 0.15 in
Snow Depth Not available.
UV 1 out of 12
Pollen 6.40 out of 12
Air Quality Not available.
Flu Activity Not available.
METAR KUIN 262254Z AUTO 31013KT 10SM FEW055 09/M04 A3004 RMK AO2 SLP174 T00891039

More Conditions Fewer Conditions

10-Day Weather Forecast

Almanac

Astronomy

Mar. 26, 2015 Rise Set
Actual Time
Civil Twilight
Nautical Twilight
Astronomical Twilight
Moon
Length of Visible Light
Length of Day
Tomorrow will be .
, % of the Moon is Illuminated

Today's Extremes

State Highs State Lows

Community

WunderPhotos

Upload Photos

1,808,633 photos uploaded!

WunderBlogs® & News

Nearby

Air Quality

  Air Quality AQ Index Pollutant
Not available.

Snow Depth

Station Depth Elevation

Earthquake Activity

City Distance Mag. Time & Date
Minimum magnitude displayed is 2.5.

Coastal Water Temperatures

Place Temperature

Stations

Nearby Weather Stations

Station Location Temp. Windchill Dew Point Humidity Wind Precip. Elev Updated Type